Time;durP1;ratioP1;P1;durP2;ratioP2;P2;SDS_P1;SDS_P2;PMS_P1;PMS_P2;Temp;Humidity;BMP_temperature;BMP_pressure;BME280_temperature;BME280_humidity;BME280_pressure;Samples;Min_cycle;Max_cycle;Signal;HPM_P1;HPM_P2
2021/05/28 00:00:57;;;;;;;7.12;5.25;;;;;;;16.56;84.76;99425.93;1704462;84;21013;-62
2021/05/28 00:03:24;;;;;;;6.20;4.15;;;;;;;16.56;84.92;99425.38;1694084;82;21096;-62
2021/05/28 00:05:50;;;;;;;;;;;;;;;16.60;84.86;99429.11;1688399;84;21045;-62
2021/05/28 00:08:16;;;;;;;7.12;3.80;;;;;;;16.62;84.69;99419.16;1692648;84;20154;-63
2021/05/28 00:10:44;;;;;;;6.78;4.33;;;;;;;16.54;84.80;99421.30;1686278;84;21037;-62
2021/05/28 00:13:10;;;;;;;;;;;;;;;16.53;84.86;99421.86;1634298;87;21069;-63
2021/05/28 00:15:37;;;;;;;5.53;3.95;;;;;;;16.53;84.77;99425.17;1656961;86;20162;-62
2021/05/28 00:18:04;;;;;;;4.17;3.70;;;;;;;16.47;84.91;99414.09;1648168;86;21111;-63
2021/05/28 00:20:31;;;;;;;4.47;2.98;;;;;;;16.48;84.94;99424.73;1648329;86;21031;-62
2021/05/28 00:22:57;;;;;;;4.90;3.20;;;;;;;16.51;84.96;99413.70;1668035;86;21134;-62
2021/05/28 00:25:24;;;;;;;4.12;2.70;;;;;;;16.56;85.06;99417.69;1645104;86;21039;-62
2021/05/28 00:27:50;;;;;;;6.28;3.22;;;;;;;16.64;85.22;99421.84;1646071;86;21102;-62
2021/05/28 00:30:17;;;;;;;;;;;;;;;16.72;85.17;99421.63;1686044;84;21021;-63
2021/05/28 00:32:44;;;;;;;5.67;3.25;;;;;;;16.70;85.01;99419.75;1660612;84;20478;-62
2021/05/28 00:35:12;;;;;;;5.67;3.10;;;;;;;16.63;85.10;99420.78;1634319;88;21483;-62
2021/05/28 00:37:38;;;;;;;5.87;2.90;;;;;;;16.61;84.74;99413.43;1638237;86;21110;-62
2021/05/28 00:40:06;;;;;;;4.67;3.20;;;;;;;16.58;84.64;99411.33;1668780;85;21058;-62
2021/05/28 00:42:33;;;;;;;6.87;3.20;;;;;;;16.59;84.74;99405.49;1647765;86;21150;-62
2021/05/28 00:44:59;;;;;;;6.03;3.35;;;;;;;16.64;84.68;99414.98;1684831;84;21017;-62
2021/05/28 00:47:26;;;;;;;7.58;3.60;;;;;;;16.69;84.61;99413.44;1703940;82;21691;-62
2021/05/28 00:49:53;;;;;;;4.75;3.45;;;;;;;16.74;84.65;99407.80;1704937;84;21009;-62
2021/05/28 00:52:20;;;;;;;5.40;3.60;;;;;;;16.78;84.26;99405.22;1636033;87;21638;-62
2021/05/28 00:54:46;;;;;;;4.25;3.12;;;;;;;16.75;83.96;99405.87;1686460;84;21018;-63
2021/05/28 00:57:12;;;;;;;;;;;;;;;16.75;84.03;99400.38;1638390;87;21643;-62
2021/05/28 00:59:39;;;;;;;4.30;3.43;;;;;;;16.73;84.11;99405.36;1654780;86;20234;-63
2021/05/28 01:02:06;;;;;;;6.45;3.47;;;;;;;16.65;84.17;99402.83;1663427;86;21111;-62
2021/05/28 01:04:32;;;;;;;5.92;3.55;;;;;;;16.64;83.77;99408.11;1645194;86;21059;-62
2021/05/28 01:07:00;;;;;;;5.05;3.20;;;;;;;16.66;83.72;99398.16;1654693;86;21126;-62
2021/05/28 01:09:27;;;;;;;5.12;3.47;;;;;;;16.62;83.71;99385.61;1655852;86;21040;-62
2021/05/28 01:11:53;;;;;;;;;;;;;;;16.70;83.55;99390.89;1654955;86;21682;-62
2021/05/28 01:14:20;;;;;;;4.30;3.02;;;;;;;16.70;83.42;99388.14;1639957;86;20205;-63
2021/05/28 01:16:47;;;;;;;5.08;3.50;;;;;;;16.68;83.43;99397.28;1627377;87;21132;-62
2021/05/28 01:19:13;;;;;;;;;;;;;;;16.69;83.37;99390.64;1647621;86;21917;-62
2021/05/28 01:21:39;;;;;;;5.03;3.52;;;;;;;16.69;83.46;99387.33;1710191;82;20168;-62
2021/05/28 01:24:06;;;;;;;6.50;3.70;;;;;;;16.59;83.55;99393.69;1679157;83;21068;-62
2021/05/28 01:26:33;;;;;;;5.25;3.58;;;;;;;16.58;83.23;99392.88;1609892;87;21255;-61
2021/05/28 01:29:00;;;;;;;5.03;3.58;;;;;;;16.60;83.11;99386.52;1700232;83;21504;-62
2021/05/28 01:31:27;;;;;;;5.47;3.67;;;;;;;16.64;83.00;99389.43;1703851;83;21447;-62
2021/05/28 01:33:53;;;;;;;;;;;;;;;16.67;82.85;99384.66;1700130;83;21548;-62
2021/05/28 01:36:21;;;;;;;4.37;3.40;;;;;;;16.68;82.65;99380.23;1692916;83;20158;-59
2021/05/28 01:38:47;;;;;;;;;;;;;;;16.54;82.48;99380.09;1703373;83;21028;-61
2021/05/28 01:41:14;;;;;;;5.07;3.10;;;;;;;16.40;82.62;99382.37;1710662;82;20171;-62
2021/05/28 01:43:40;;;;;;;4.85;3.00;;;;;;;16.26;83.03;99383.64;1718367;83;21057;-60
2021/05/28 01:46:06;;;;;;;4.53;3.50;;;;;;;16.25;83.47;99393.00;1703403;83;21005;-60
2021/05/28 01:48:34;;;;;;;3.83;3.30;;;;;;;16.24;83.83;99383.94;1644792;87;21132;-60
2021/05/28 01:51:00;;;;;;;;;;;;;;;16.26;83.80;99383.05;1707877;83;21049;-59
2021/05/28 01:53:27;;;;;;;7.50;3.90;;;;;;;16.27;83.47;99383.86;1700162;82;20154;-59
2021/05/28 01:55:54;;;;;;;4.37;3.08;;;;;;;16.19;83.50;99396.42;1718150;83;21001;-61
2021/05/28 01:58:22;;;;;;;4.45;2.92;;;;;;;16.22;83.75;99397.75;1716279;83;21081;-60
2021/05/28 02:00:51;;;;;;;3.98;3.10;;;;;;;16.28;83.84;99387.67;1710632;83;21576;-60
2021/05/28 02:03:19;;;;;;;5.53;3.58;;;;;;;16.32;83.63;99407.08;1706025;83;21072;-60
2021/05/28 02:05:47;;;;;;;5.25;3.58;;;;;;;16.25;83.52;99401.23;1707573;83;21595;-60
2021/05/28 02:08:15;;;;;;;7.05;4.05;;;;;;;16.22;83.59;99404.06;1718350;82;21112;-60
2021/05/28 02:10:42;;;;;;;6.03;3.98;;;;;;;16.22;83.52;99396.38;1703678;83;21033;-61
2021/05/28 02:13:09;;;;;;;7.10;3.42;;;;;;;16.20;83.45;99399.43;1700692;83;21100;-61
2021/05/28 02:15:35;;;;;;;4.95;3.50;;;;;;;16.20;83.55;99399.43;1707985;83;21045;-61
2021/05/28 02:18:02;;;;;;;6.80;3.60;;;;;;;16.20;83.60;99392.56;1706043;83;21076;-61
2021/05/28 02:20:30;;;;;;;5.22;3.55;;;;;;;16.21;83.58;99390.63;1712612;83;21567;-61
2021/05/28 02:22:56;;;;;;;;;;;;;;;16.22;83.60;99395.01;1714963;83;21120;-60
2021/05/28 02:25:22;;;;;;;4.05;2.98;;;;;;;16.25;83.62;99390.25;1705052;83;20181;-61
2021/05/28 02:27:49;;;;;;;5.28;3.22;;;;;;;16.22;83.68;99386.20;1699801;83;21057;-60
2021/05/28 02:30:17;;;;;;;3.67;3.37;;;;;;;16.22;83.63;99385.39;1644231;86;21067;-60
2021/05/28 02:32:44;;;;;;;5.20;2.80;;;;;;;16.19;83.56;99385.44;1625978;86;21123;-62
2021/05/28 02:35:11;;;;;;;;;;;;;;;16.23;83.50;99382.88;1720109;83;21028;-61
2021/05/28 02:37:37;;;;;;;3.87;2.90;;;;;;;16.27;83.42;99380.55;1678475;83;20167;-62
2021/05/28 02:40:04;;;;;;;4.22;3.05;;;;;;;16.24;83.33;99377.08;1721627;83;21508;-61
2021/05/28 02:42:32;;;;;;;5.35;3.27;;;;;;;16.23;83.25;99374.08;1705308;83;21643;-60
2021/05/28 02:44:58;;;;;;;;;;;;;;;16.24;83.22;99370.20;1711767;83;21067;-60
2021/05/28 02:47:25;;;;;;;6.35;3.65;;;;;;;16.23;83.18;99379.56;1706187;83;20148;-60
2021/05/28 02:49:51;;;;;;;4.05;3.35;;;;;;;16.07;83.38;99377.01;1701836;83;21024;-61
2021/05/28 02:52:18;;;;;;;;;;;;;;;16.04;83.40;99370.78;1705092;83;21040;-60
2021/05/28 02:54:44;;;;;;;8.08;3.02;;;;;;;16.05;83.25;99372.38;1706797;83;20158;-62
2021/05/28 02:57:11;;;;;;;4.97;3.12;;;;;;;16.02;83.16;99373.02;1657594;86;21507;-62
2021/05/28 02:59:38;;;;;;;6.60;3.20;;;;;;;15.97;83.04;99371.80;1710013;83;21033;-61
2021/05/28 03:02:04;;;;;;;3.98;3.33;;;;;;;15.90;83.17;99371.44;1713990;83;21615;-62
2021/05/28 03:04:31;;;;;;;4.78;3.22;;;;;;;15.88;83.55;99375.05;1722394;83;21061;-62
2021/05/28 03:06:57;;;;;;;;;;;;;;;15.91;83.82;99369.73;1720572;82;21715;-62
2021/05/28 03:09:23;;;;;;;4.35;3.40;;;;;;;15.93;83.82;99372.18;1714033;83;20553;-62
2021/05/28 03:11:50;;;;;;;;;;;;;;;15.92;83.98;99371.37;1700089;83;21060;-62
2021/05/28 03:14:17;;;;;;;4.85;3.58;;;;;;;15.97;84.32;99368.24;1714102;83;20216;-63
2021/05/28 03:16:43;;;;;;;4.30;3.55;;;;;;;15.92;84.68;99367.80;1704418;83;21131;-62
2021/05/28 03:19:44;;;;;;;5.60;3.60;;;;;;;16.01;84.63;99363.18;1719182;83;21124;-60
2021/05/28 03:24:28;;;;;;;7.85;4.25;;;;;;;16.21;84.53;99357.67;1718525;83;21860;-60
2021/05/28 03:26:54;;;;;;;;;;;;;;;16.27;84.49;99355.02;1724638;83;21565;-61
2021/05/28 03:29:21;;;;;;;5.97;4.10;;;;;;;16.33;84.51;99353.77;1719195;83;20163;-61
2021/05/28 03:31:49;;;;;;;4.05;3.62;;;;;;;16.33;84.66;99353.18;1709164;82;21068;-61
2021/05/28 03:34:15;;;;;;;;;;;;;;;16.41;84.59;99355.71;1724917;83;21095;-61
2021/05/28 03:36:42;;;;;;;4.40;4.00;;;;;;;16.48;84.48;99354.68;1718987;82;20152;-61
2021/05/28 03:39:10;;;;;;;4.20;3.80;;;;;;;16.48;84.49;99362.92;1707517;83;21080;-63
2021/05/28 03:41:36;;;;;;;;;;;;;;;16.56;84.40;99365.48;1722850;82;21072;-61
2021/05/28 03:44:04;;;;;;;4.05;3.65;;;;;;;16.59;84.18;99364.84;1722060;83;20159;-61
2021/05/28 03:46:30;;;;;;;5.45;3.98;;;;;;;16.55;84.24;99372.06;1701992;83;21556;-61
2021/05/28 03:48:56;;;;;;;4.55;3.80;;;;;;;16.57;84.22;99378.09;1719118;83;21060;-61
2021/05/28 03:51:23;;;;;;;7.58;6.03;;;;;;;16.62;84.14;99380.68;1716478;82;21020;-61
2021/05/28 03:53:49;;;;;;;6.85;6.03;;;;;;;16.66;84.15;99389.91;1715613;83;21068;-61
2021/05/28 03:56:16;;;;;;;7.40;6.70;;;;;;;16.66;84.21;99376.17;1715526;83;21020;-61
2021/05/28 03:58:43;;;;;;;7.37;6.67;;;;;;;16.70;84.00;99375.22;1715767;83;21108;-62
2021/05/28 04:01:09;;;;;;;8.33;7.35;;;;;;;16.77;83.76;99381.05;1653435;86;21053;-61
2021/05/28 04:03:37;;;;;;;9.80;6.70;;;;;;;16.83;83.47;99379.75;1719216;83;21061;-60
2021/05/28 04:06:04;;;;;;;8.98;8.00;;;;;;;16.84;83.29;99376.45;1721903;83;21635;-61
2021/05/28 04:08:30;;;;;;;9.70;7.15;;;;;;;16.86;83.18;99378.33;1713486;82;21088;-61
2021/05/28 04:10:58;;;;;;;11.95;8.48;;;;;;;16.89;83.08;99379.05;1705980;83;21016;-61
2021/05/28 04:13:31;;;;;;;9.70;8.10;;;;;;;16.90;82.95;99379.27;1722267;82;21084;-60
2021/05/28 04:16:00;;;;;;;10.13;7.95;;;;;;;16.90;82.90;99383.39;1705019;83;21048;-61
2021/05/28 04:18:26;;;;;;;9.68;8.20;;;;;;;16.91;82.86;99380.90;1693864;83;21069;-61
2021/05/28 04:20:53;;;;;;;8.60;6.95;;;;;;;16.89;83.03;99379.86;1695925;84;21465;-61
2021/05/28 04:23:20;;;;;;;7.65;6.80;;;;;;;16.89;83.08;99379.05;1688053;84;21085;-61
2021/05/28 04:25:46;;;;;;;;;;;;;;;16.90;83.04;99375.96;1704684;84;21497;-62
2021/05/28 04:28:13;;;;;;;7.05;6.05;;;;;;;16.93;82.99;99381.97;1708632;82;20165;-62
2021/05/28 04:30:40;;;;;;;7.75;6.45;;;;;;;16.86;83.21;99381.86;1673823;84;21006;-61
2021/05/28 04:33:06;;;;;;;7.05;6.35;;;;;;;16.85;83.43;99379.45;1687215;84;21128;-62
2021/05/28 04:35:33;;;;;;;7.58;6.10;;;;;;;16.84;83.60;99370.39;1633636;86;21068;-62
2021/05/28 04:38:00;;;;;;;6.78;5.60;;;;;;;16.88;83.73;99375.48;1692371;82;21115;-59
2021/05/28 04:40:28;;;;;;;7.08;6.37;;;;;;;16.93;83.67;99373.94;1661273;86;21055;-61
2021/05/28 04:42:55;;;;;;;7.10;6.40;;;;;;;16.99;83.42;99370.48;1687304;84;21124;-61
2021/05/28 04:45:21;;;;;;;7.37;6.67;;;;;;;16.96;83.36;99368.38;1700970;84;21066;-62
2021/05/28 04:47:48;;;;;;;8.08;7.28;;;;;;;17.03;83.21;99381.09;1632202;86;21635;-61
2021/05/28 04:50:14;;;;;;;7.50;6.80;;;;;;;17.01;83.36;99383.33;1695846;84;21030;-60
2021/05/28 04:52:42;;;;;;;8.20;7.40;;;;;;;17.00;83.36;99376.80;1615687;87;21638;-62
2021/05/28 04:55:10;;;;;;;7.25;6.55;;;;;;;17.08;83.19;99381.47;1649383;86;21050;-62
2021/05/28 04:57:37;;;;;;;7.47;6.78;;;;;;;17.13;83.21;99379.95;1688829;84;21080;-60
2021/05/28 05:00:05;;;;;;;7.80;7.03;;;;;;;17.22;83.03;99389.00;1688538;84;21045;-61
2021/05/28 05:02:32;;;;;;;9.30;7.30;;;;;;;17.25;82.53;99385.03;1696648;82;21990;-60
2021/05/28 05:04:58;;;;;;;8.35;7.53;;;;;;;17.30;82.12;99393.13;1653869;85;21558;-60
2021/05/28 05:07:26;;;;;;;10.90;7.58;;;;;;;17.34;81.94;99389.98;1661176;86;21144;-61
2021/05/28 05:09:53;;;;;;;;;;;;;;;17.35;81.68;99392.98;1672565;86;21060;-62
2021/05/28 05:12:19;;;;;;;8.88;7.97;;;;;;;17.36;81.82;99386.89;1693458;82;20486;-60
2021/05/28 05:14:45;;;;;;;8.98;8.08;;;;;;;17.40;81.86;99393.36;1701536;84;21069;-61
2021/05/28 05:17:11;;;;;;;;;;;;;;;17.51;81.81;99395.21;1701700;83;21624;-60
2021/05/28 05:19:38;;;;;;;8.73;7.83;;;;;;;17.60;81.49;99396.06;1699652;84;20149;-60
2021/05/28 05:22:05;;;;;;;9.25;8.18;;;;;;;17.61;81.35;99392.16;1695904;83;21654;-60
2021/05/28 05:24:32;;;;;;;9.85;8.60;;;;;;;17.59;80.99;99384.80;1711212;83;21579;-61
2021/05/28 05:26:59;;;;;;;8.70;7.90;;;;;;;17.53;80.75;99387.46;1687834;83;21132;-60
2021/05/28 05:29:25;;;;;;;7.35;6.65;;;;;;;17.48;80.77;99389.80;1712243;83;21177;-60
2021/05/28 05:31:52;;;;;;;9.13;7.87;;;;;;;17.57;80.66;99383.73;1696271;83;21096;-60
2021/05/28 05:34:18;;;;;;;9.20;7.25;;;;;;;17.62;79.93;99382.20;1721922;83;21615;-61
2021/05/28 05:36:45;;;;;;;8.65;7.85;;;;;;;17.70;79.71;99390.21;1702513;82;21076;-61
2021/05/28 05:39:11;;;;;;;7.87;7.00;;;;;;;17.77;79.60;99384.45;1652103;86;21644;-61
2021/05/28 05:41:37;;;;;;;;;;;;;;;17.81;78.97;99381.85;1696185;83;21125;-61
2021/05/28 05:44:04;;;;;;;7.45;6.72;;;;;;;17.87;78.42;99378.59;1693439;85;20166;-61
2021/05/28 05:46:31;;;;;;;5.97;5.37;;;;;;;17.94;78.61;99384.97;1699696;83;21631;-61
2021/05/28 05:48:57;;;;;;;;;;;;;;;18.01;77.07;99379.75;1719537;83;21029;-62
2021/05/28 05:51:23;;;;;;;9.35;6.30;;;;;;;18.02;76.60;99388.83;1694351;82;20175;-61
2021/05/28 05:53:50;;;;;;;;;;;;;;;17.95;76.92;99388.53;1713330;83;21107;-61
2021/05/28 05:56:16;;;;;;;6.47;4.47;;;;;;;18.01;76.07;99385.27;1700292;83;20194;-61
2021/05/28 05:58:42;;;;;;;6.17;4.22;;;;;;;18.08;76.02;99385.56;1694017;83;21028;-61
2021/05/28 06:01:09;;;;;;;5.28;4.55;;;;;;;18.21;75.98;99387.28;1649462;86;21085;-61
2021/05/28 06:03:36;;;;;;;4.85;4.20;;;;;;;18.40;75.41;99385.52;1695590;83;21088;-61
2021/05/28 06:06:02;;;;;;;5.25;4.40;;;;;;;18.55;75.19;99386.93;1694199;83;21507;-61
2021/05/28 06:08:28;;;;;;;;;;;;;;;18.66;73.83;99381.27;1672052;85;21080;-61
2021/05/28 06:10:55;;;;;;;6.80;3.90;;;;;;;18.81;74.04;99384.24;1711572;83;20200;-62
2021/05/28 06:13:21;;;;;;;4.55;3.17;;;;;;;18.95;72.44;99385.96;1722246;82;21103;-61
2021/05/28 06:15:48;;;;;;;3.85;3.17;;;;;;;19.01;72.61;99388.17;1704410;83;21024;-61
2021/05/28 06:18:14;;;;;;;5.75;3.50;;;;;;;19.11;71.99;99383.63;1690584;84;21138;-61
2021/05/28 06:20:41;;;;;;;5.95;3.50;;;;;;;19.34;71.99;99382.13;1690168;84;21017;-61
2021/05/28 06:23:08;;;;;;;5.67;3.95;;;;;;;19.67;71.78;99384.95;1708452;84;21108;-61
2021/05/28 06:25:34;;;;;;;6.37;4.10;;;;;;;19.80;71.30;99389.35;1702896;84;21583;-63
2021/05/28 06:28:00;;;;;;;4.47;3.60;;;;;;;19.90;70.54;99383.98;1691827;84;21093;-60
2021/05/28 06:30:27;;;;;;;7.05;3.45;;;;;;;20.13;70.10;99384.36;1698375;83;21543;-60
2021/05/28 06:32:53;;;;;;;4.95;3.40;;;;;;;20.40;67.97;99389.28;1693333;82;21069;-62
2021/05/28 06:35:20;;;;;;;5.00;3.25;;;;;;;20.61;67.30;99380.86;1699295;84;21081;-62
2021/05/28 06:37:48;;;;;;;3.52;2.65;;;;;;;20.80;66.40;99371.38;1627281;84;21069;-62
2021/05/28 06:40:15;;;;;;;5.15;3.10;;;;;;;20.89;64.74;99371.26;1699466;84;21683;-61
2021/05/28 06:42:41;;;;;;;4.47;2.50;;;;;;;20.81;65.05;99377.95;1583454;88;21115;-62
2021/05/28 06:45:08;;;;;;;2.95;2.20;;;;;;;20.62;62.73;99385.22;1706142;84;21592;-61
2021/05/28 06:47:34;;;;;;;3.42;2.10;;;;;;;20.34;61.44;99387.30;1703640;84;21101;-62
2021/05/28 06:50:01;;;;;;;3.90;2.65;;;;;;;20.04;62.18;99385.86;1670857;84;21049;-59
2021/05/28 06:52:28;;;;;;;5.85;2.65;;;;;;;19.89;63.83;99389.27;1707154;84;21658;-61
2021/05/28 06:54:54;;;;;;;3.98;2.52;;;;;;;19.98;64.69;99390.57;1674509;84;21124;-64
2021/05/28 06:57:22;;;;;;;4.08;2.37;;;;;;;20.15;63.70;99385.66;1706916;84;21093;-61
2021/05/28 06:59:48;;;;;;;5.22;3.00;;;;;;;20.27;63.45;99385.68;1708620;84;21073;-62
2021/05/28 07:02:15;;;;;;;3.08;2.60;;;;;;;20.31;64.00;99386.61;1704122;84;21112;-61
2021/05/28 07:04:41;;;;;;;8.35;2.70;;;;;;;20.40;63.25;99382.37;1706918;84;21639;-63
2021/05/28 07:07:09;;;;;;;3.92;3.00;;;;;;;20.40;63.72;99380.17;1691018;84;21136;-63
2021/05/28 07:09:35;;;;;;;11.20;4.05;;;;;;;20.38;63.58;99377.73;1694475;84;21269;-62
2021/05/28 07:12:03;;;;;;;5.00;2.80;;;;;;;20.34;63.63;99375.43;1707316;84;21104;-61
2021/05/28 07:14:30;;;;;;;24.07;10.68;;;;;;;20.48;64.62;99375.08;1665580;84;21057;-63
2021/05/28 07:16:56;;;;;;;4.50;2.90;;;;;;;20.62;63.03;99371.39;1705040;84;21632;-62
2021/05/28 07:19:22;;;;;;;4.17;2.80;;;;;;;20.81;63.85;99371.61;1705927;83;21049;-60
2021/05/28 07:21:49;;;;;;;10.50;6.28;;;;;;;21.02;63.05;99370.88;1706729;83;21158;-60
2021/05/28 07:24:15;;;;;;;19.62;7.15;;;;;;;21.21;61.29;99370.29;1693529;85;21562;-59
2021/05/28 07:26:42;;;;;;;11.80;4.22;;;;;;;21.29;60.22;99367.97;1714174;83;21142;-61
2021/05/28 07:29:08;;;;;;;11.75;5.85;;;;;;;21.34;61.19;99363.55;1703287;83;21097;-60
2021/05/28 07:33:25;;;;;;;6.33;2.77;;;;;;;21.28;60.61;99359.42;1741776;79;23384;-60
2021/05/28 07:35:52;;;;;;;4.28;2.52;;;;;;;21.20;59.85;99357.02;1716770;82;21044;-61
2021/05/28 07:38:18;;;;;;;3.25;2.10;;;;;;;21.29;60.65;99361.05;1716625;83;21080;-62
2021/05/28 07:40:45;;;;;;;5.05;2.20;;;;;;;21.39;59.21;99357.77;1695694;83;21568;-62
2021/05/28 07:43:11;;;;;;;2.62;2.12;;;;;;;21.67;60.96;99361.91;1703653;82;21081;-62
2021/05/28 07:45:39;;;;;;;3.02;2.30;;;;;;;22.14;59.63;99364.17;1721895;83;21056;-62
2021/05/28 07:48:06;;;;;;;5.30;2.67;;;;;;;22.51;59.43;99360.55;1716103;83;21088;-61
2021/05/28 07:50:45;;;;;;;23.57;7.90;;;;;;;22.53;56.93;99352.66;1698364;83;21072;-62
2021/05/28 07:53:01;;;;;;;10.55;5.75;;;;;;;22.49;58.18;99349.02;1719871;83;21088;-62
2021/05/28 07:55:28;;;;;;;5.28;2.85;;;;;;;22.50;58.62;99349.22;1716195;83;21618;-62
2021/05/28 07:57:54;;;;;;;6.40;3.60;;;;;;;22.50;59.36;99349.22;1709312;83;21088;-60
2021/05/28 08:00:21;;;;;;;5.97;3.47;;;;;;;22.32;57.50;99350.17;1720114;83;21044;-63
2021/05/28 08:02:48;;;;;;;4.05;3.00;;;;;;;22.14;59.40;99343.98;1693226;83;21100;-61
2021/05/28 08:05:15;;;;;;;3.58;2.62;;;;;;;22.35;60.31;99338.16;1650738;87;21056;-62
2021/05/28 08:07:43;;;;;;;4.55;3.60;;;;;;;22.57;59.03;99340.25;1661586;85;21079;-61
2021/05/28 08:10:10;;;;;;;6.12;3.90;;;;;;;22.69;57.85;99338.22;1689766;85;21563;-62
2021/05/28 08:12:36;;;;;;;7.42;4.65;;;;;;;22.75;56.89;99336.77;1665532;85;21124;-61
2021/05/28 08:15:05;;;;;;;6.95;4.55;;;;;;;22.82;58.09;99344.44;1703417;83;21073;-62
2021/05/28 08:17:31;;;;;;;7.33;4.33;;;;;;;22.78;57.37;99333.84;1711616;83;21104;-61
2021/05/28 08:20:00;;;;;;;10.55;3.65;;;;;;;22.76;58.61;99332.02;1711368;83;21523;-62
2021/05/28 08:22:26;;;;;;;5.75;3.52;;;;;;;22.59;60.07;99333.78;1702643;83;21093;-62
2021/05/28 08:24:53;;;;;;;8.95;4.97;;;;;;;22.20;59.27;99332.27;1705445;83;21097;-61
2021/05/28 08:27:19;;;;;;;8.80;5.08;;;;;;;21.98;61.83;99327.34;1716753;82;21155;-60
2021/05/28 08:29:46;;;;;;;6.65;4.62;;;;;;;22.15;61.70;99331.14;1706669;83;21080;-61
2021/05/28 08:32:12;;;;;;;6.30;4.65;;;;;;;22.27;61.91;99332.44;1686072;83;21112;-61
2021/05/28 08:34:39;;;;;;;6.65;4.70;;;;;;;22.52;60.47;99326.68;1696870;84;21973;-61
2021/05/28 08:37:06;;;;;;;5.62;4.42;;;;;;;22.54;58.12;99324.34;1684387;84;21053;-60
2021/05/28 08:39:33;;;;;;;8.58;5.08;;;;;;;22.56;58.59;99318.67;1690098;84;21054;-60
2021/05/28 08:42:00;;;;;;;6.08;5.12;;;;;;;22.51;58.14;99323.67;1704238;84;21073;-61
2021/05/28 08:44:28;;;;;;;5.58;4.97;;;;;;;22.54;57.94;99310.47;1702553;84;21046;-61
2021/05/28 08:46:54;;;;;;;7.03;4.65;;;;;;;22.52;58.13;99317.78;1702100;83;21105;-62
2021/05/28 08:49:21;;;;;;;7.62;5.00;;;;;;;22.47;59.30;99311.11;1703554;84;21037;-62
2021/05/28 08:51:48;;;;;;;8.78;4.55;;;;;;;22.55;59.82;99315.67;1688383;84;21127;-61
2021/05/28 08:54:15;;;;;;;7.78;4.58;;;;;;;22.43;60.45;99312.19;1687471;84;21038;-59
2021/05/28 08:56:46;;;;;;;6.72;4.40;;;;;;;22.33;60.48;99316.33;1703870;84;21102;-61
2021/05/28 08:59:12;;;;;;;9.23;5.65;;;;;;;22.40;59.69;99317.88;1679134;84;21033;-61
2021/05/28 09:01:38;;;;;;;8.65;5.30;;;;;;;22.49;60.30;99316.31;1678969;85;21615;-61
2021/05/28 09:04:06;;;;;;;6.42;4.97;;;;;;;22.42;58.25;99314.76;1705855;84;21010;-62
2021/05/28 09:06:46;;;;;;;5.95;5.17;;;;;;;22.38;58.75;99304.16;1705680;84;21128;-62
2021/05/28 09:09:19;;;;;;;6.60;4.97;;;;;;;22.44;59.52;99308.25;1694749;84;21021;-61
2021/05/28 09:12:04;;;;;;;6.58;5.55;;;;;;;22.39;60.70;99307.16;1707780;84;21101;-61
2021/05/28 09:14:46;;;;;;;7.87;5.42;;;;;;;22.45;60.09;99308.48;1708567;84;21051;-60
2021/05/28 09:17:12;;;;;;;7.80;6.00;;;;;;;22.51;58.74;99309.81;1694842;84;21124;-61
2021/05/28 09:19:39;;;;;;;7.25;5.60;;;;;;;22.40;58.11;99307.36;1700179;84;21041;-59
2021/05/28 09:22:08;;;;;;;5.95;5.05;;;;;;;22.24;58.44;99304.05;1691375;84;21158;-61
2021/05/28 09:24:42;;;;;;;6.28;5.60;;;;;;;22.08;59.03;99301.86;1700319;84;21033;-63
2021/05/28 09:27:27;;;;;;;8.70;5.62;;;;;;;22.02;59.37;99301.10;1687852;84;21124;-60
2021/05/28 09:30:17;;;;;;;6.83;4.87;;;;;;;21.96;59.12;99305.31;1698924;84;21559;-60
2021/05/28 09:32:47;;;;;;;8.45;5.80;;;;;;;22.08;58.98;99306.02;1712582;82;21100;-59
2021/05/28 09:35:18;;;;;;;6.37;5.12;;;;;;;22.08;60.19;99302.44;1720896;82;21013;-61
2021/05/28 09:37:50;;;;;;;5.87;4.87;;;;;;;22.14;59.09;99303.80;1711957;83;21524;-61
2021/05/28 09:40:18;;;;;;;6.17;5.58;;;;;;;22.19;60.14;99300.73;1710422;83;21009;-59
2021/05/28 09:43:03;;;;;;;5.45;4.72;;;;;;;22.07;59.39;99298.86;1712736;83;21108;-59
2021/05/28 09:45:38;;;;;;;8.78;5.75;;;;;;;22.18;60.61;99300.50;1692795;83;21033;-60
2021/05/28 09:48:18;;;;;;;7.28;5.40;;;;;;;22.44;60.92;99293.00;1720467;83;21072;-61
2021/05/28 09:50:51;;;;;;;7.47;5.12;;;;;;;22.74;58.95;99289.98;1711287;83;21007;-60
2021/05/28 09:53:40;;;;;;;8.28;5.50;;;;;;;22.96;56.73;99292.59;1713164;83;21607;-60
2021/05/28 09:56:30;;;;;;;9.68;5.20;;;;;;;22.95;57.50;99288.23;1710298;83;20969;-61
2021/05/28 09:59:06;;;;;;;11.18;6.60;;;;;;;22.98;56.45;99281.95;1719575;83;21056;-61
2021/05/28 10:01:34;;;;;;;6.12;5.15;;;;;;;22.90;57.34;99274.64;1722229;83;21100;-60
2021/05/28 10:04:08;;;;;;;9.55;6.22;;;;;;;22.90;56.96;99272.67;1684851;85;21072;-60
2021/05/28 10:06:37;;;;;;;6.70;4.37;;;;;;;22.77;56.98;99275.38;1722347;83;21068;-60
2021/05/28 10:09:09;;;;;;;7.15;5.47;;;;;;;22.68;57.13;99271.41;1719466;82;21611;-60
2021/05/28 10:11:37;;;;;;;7.55;5.55;;;;;;;22.61;56.75;99271.22;1712314;82;21079;-60
2021/05/28 10:14:06;;;;;;;10.15;6.05;;;;;;;22.60;58.27;99266.83;1699254;83;21040;-59
2021/05/28 10:16:32;;;;;;;9.40;5.45;;;;;;;22.60;56.53;99266.05;1717737;82;21575;-61
2021/05/28 10:18:58;;;;;;;7.45;5.50;;;;;;;22.74;56.95;99265.00;1712122;83;21096;-61
2021/05/28 10:21:26;;;;;;;8.55;5.55;;;;;;;22.85;56.80;99261.06;1715966;83;21595;-59
2021/05/28 10:23:53;;;;;;;11.73;5.97;;;;;;;22.87;57.08;99260.91;1715916;83;21088;-61
2021/05/28 10:26:30;;;;;;;8.78;5.30;;;;;;;22.96;57.60;99255.13;1703552;83;21056;-60
2021/05/28 10:28:57;;;;;;;7.12;5.50;;;;;;;23.08;55.72;99262.73;1721901;83;21076;-59
2021/05/28 10:31:50;;;;;;;8.95;5.40;;;;;;;23.25;55.34;99260.89;1708489;83;21052;-60
2021/05/28 10:34:16;;;;;;;7.58;5.90;;;;;;;23.41;54.10;99262.78;1699063;83;21048;-63
2021/05/28 10:36:43;;;;;;;6.75;5.45;;;;;;;23.51;54.87;99254.67;1727350;81;21097;-60
2021/05/28 10:39:11;;;;;;;5.72;4.97;;;;;;;23.45;54.36;99244.24;1719018;83;21430;-61
2021/05/28 10:41:45;;;;;;;10.05;5.95;;;;;;;23.34;56.18;99244.02;1728716;83;21087;-61
2021/05/28 10:44:22;;;;;;;6.62;5.00;;;;;;;23.29;54.88;99240.94;1706745;83;21096;-62
2021/05/28 10:47:17;;;;;;;7.58;5.12;;;;;;;23.38;54.63;99236.55;1699206;84;21096;-62
2021/05/28 10:49:50;;;;;;;7.20;5.67;;;;;;;23.46;53.13;99231.35;1709447;83;20969;-62
2021/05/28 10:52:31;;;;;;;8.25;5.10;;;;;;;23.73;53.10;99225.30;1728768;83;21076;-62
2021/05/28 10:55:04;;;;;;;6.03;5.42;;;;;;;23.99;51.21;99223.92;1708278;83;21485;-62
2021/05/28 10:57:34;;;;;;;7.90;5.25;;;;;;;24.21;50.80;99212.58;1692351;84;21191;-62
2021/05/28 11:00:05;;;;;;;6.92;4.55;;;;;;;24.36;53.15;99213.00;1699942;83;21470;-62
2021/05/28 11:02:56;;;;;;;5.90;4.87;;;;;;;24.42;49.62;99207.90;1700939;83;21786;-61
2021/05/28 11:05:50;;;;;;;7.10;4.80;;;;;;;24.40;49.30;99205.52;1699184;84;21547;-63
2021/05/28 11:08:43;;;;;;;7.47;5.20;;;;;;;24.40;49.30;99205.52;1702307;83;21084;-62
2021/05/28 11:11:38;;;;;;;5.95;5.05;;;;;;;24.42;50.57;99204.53;1727793;83;21020;-62
2021/05/28 11:14:14;;;;;;;7.58;5.40;;;;;;;24.40;50.96;99202.73;1703298;83;21615;-63
2021/05/28 11:17:00;;;;;;;7.10;4.83;;;;;;;24.13;50.05;99193.59;1703402;83;21080;-63
2021/05/28 11:19:32;;;;;;;6.67;4.50;;;;;;;24.05;50.49;99193.26;1716841;83;21053;-61
2021/05/28 11:22:02;;;;;;;7.37;4.75;;;;;;;24.22;50.09;99191.94;1722746;83;21058;-63
2021/05/28 11:24:52;;;;;;;6.20;4.62;;;;;;;24.45;50.06;99190.45;1727798;83;21107;-62
2021/05/28 11:27:27;;;;;;;6.87;5.12;;;;;;;24.69;49.98;99187.22;1728595;83;21094;-62
2021/05/28 11:30:07;;;;;;;7.55;4.90;;;;;;;24.81;49.47;99184.75;1721956;83;21013;-62
2021/05/28 11:32:45;;;;;;;6.22;4.50;;;;;;;24.68;49.37;99178.64;1732275;81;21088;-62
2021/05/28 11:35:17;;;;;;;7.83;4.42;;;;;;;24.85;50.49;99164.16;1692579;84;21042;-62
2021/05/28 11:37:58;;;;;;;7.50;5.60;;;;;;;24.85;50.49;99164.16;1697625;84;21089;-62
2021/05/28 11:40:35;;;;;;;6.72;4.47;;;;;;;25.02;48.99;99161.36;1692967;84;21023;-63
2021/05/28 11:43:18;;;;;;;5.72;4.28;;;;;;;24.83;46.89;99153.17;1690655;84;21077;-64
2021/05/28 11:45:50;;;;;;;7.20;4.53;;;;;;;24.65;48.45;99154.36;1691644;84;21018;-62
2021/05/28 11:48:20;;;;;;;7.15;4.83;;;;;;;24.65;48.45;99154.36;1707128;82;21085;-62
2021/05/28 11:50:55;;;;;;;6.62;5.33;;;;;;;24.68;48.86;99153.02;1700503;84;21536;-61